sensor_id;sensor_type;location;lat;lon;timestamp;temperature;humidity
35497;DHT22;21609;49.298;6.844;2022-08-03T00:01:42;24.70;50.20
35497;DHT22;21609;49.298;6.844;2022-08-03T00:04:08;24.60;50.10
35497;DHT22;21609;49.298;6.844;2022-08-03T00:06:34;24.60;50.10
35497;DHT22;21609;49.298;6.844;2022-08-03T00:09:00;24.60;50.10
35497;DHT22;21609;49.298;6.844;2022-08-03T00:11:26;24.60;50.70
35497;DHT22;21609;49.298;6.844;2022-08-03T00:13:52;24.60;50.20
35497;DHT22;21609;49.298;6.844;2022-08-03T00:16:17;24.50;50.20
35497;DHT22;21609;49.298;6.844;2022-08-03T00:18:43;24.50;50.20
35497;DHT22;21609;49.298;6.844;2022-08-03T00:21:09;24.50;50.10
35497;DHT22;21609;49.298;6.844;2022-08-03T00:23:35;24.50;50.20
35497;DHT22;21609;49.298;6.844;2022-08-03T00:26:01;24.50;50.20
35497;DHT22;21609;49.298;6.844;2022-08-03T00:28:27;24.50;50.20
35497;DHT22;21609;49.298;6.844;2022-08-03T00:30:53;24.50;50.20
35497;DHT22;21609;49.298;6.844;2022-08-03T00:33:20;24.50;50.20
35497;DHT22;21609;49.298;6.844;2022-08-03T00:35:46;24.50;50.10
35497;DHT22;21609;49.298;6.844;2022-08-03T00:38:11;24.50;50.10
35497;DHT22;21609;49.298;6.844;2022-08-03T00:40:37;24.50;50.20
35497;DHT22;21609;49.298;6.844;2022-08-03T00:43:04;24.50;50.20
35497;DHT22;21609;49.298;6.844;2022-08-03T00:45:32;24.50;50.20
35497;DHT22;21609;49.298;6.844;2022-08-03T00:47:58;24.50;50.20
35497;DHT22;21609;49.298;6.844;2022-08-03T00:50:26;24.50;50.30
35497;DHT22;21609;49.298;6.844;2022-08-03T00:52:55;24.50;50.20
35497;DHT22;21609;49.298;6.844;2022-08-03T00:55:21;24.50;50.20
35497;DHT22;21609;49.298;6.844;2022-08-03T00:57:48;24.50;50.30
35497;DHT22;21609;49.298;6.844;2022-08-03T01:00:17;24.50;50.20
35497;DHT22;21609;49.298;6.844;2022-08-03T01:02:44;24.50;50.20
35497;DHT22;21609;49.298;6.844;2022-08-03T01:05:09;24.40;50.10
35497;DHT22;21609;49.298;6.844;2022-08-03T01:10:53;24.40;50.10
35497;DHT22;21609;49.298;6.844;2022-08-03T01:21:26;24.40;50.20
35497;DHT22;21609;49.298;6.844;2022-08-03T01:24:11;24.40;50.20
35497;DHT22;21609;49.298;6.844;2022-08-03T01:30:02;24.40;50.10
35497;DHT22;21609;49.298;6.844;2022-08-03T01:32:56;24.40;50.20
35497;DHT22;21609;49.298;6.844;2022-08-03T01:35:31;24.40;50.20
35497;DHT22;21609;49.298;6.844;2022-08-03T01:38:04;24.30;50.10
35497;DHT22;21609;49.298;6.844;2022-08-03T01:40:33;24.30;50.10
35497;DHT22;21609;49.298;6.844;2022-08-03T01:43:02;24.30;50.20
35497;DHT22;21609;49.298;6.844;2022-08-03T01:45:29;24.30;50.10
35497;DHT22;21609;49.298;6.844;2022-08-03T01:47:55;24.30;50.10
35497;DHT22;21609;49.298;6.844;2022-08-03T01:50:25;24.20;50.20
35497;DHT22;21609;49.298;6.844;2022-08-03T01:52:52;24.20;50.10
35497;DHT22;21609;49.298;6.844;2022-08-03T01:55:19;24.20;50.00
35497;DHT22;21609;49.298;6.844;2022-08-03T01:57:47;24.20;50.10
35497;DHT22;21609;49.298;6.844;2022-08-03T02:00:14;24.10;50.10
35497;DHT22;21609;49.298;6.844;2022-08-03T02:02:41;24.10;50.10
35497;DHT22;21609;49.298;6.844;2022-08-03T02:05:09;24.00;50.20
35497;DHT22;21609;49.298;6.844;2022-08-03T02:07:36;24.00;50.20
35497;DHT22;21609;49.298;6.844;2022-08-03T02:10:05;24.00;50.10
35497;DHT22;21609;49.298;6.844;2022-08-03T02:12:32;24.00;50.00
35497;DHT22;21609;49.298;6.844;2022-08-03T02:14:59;24.00;50.10
35497;DHT22;21609;49.298;6.844;2022-08-03T02:17:26;23.90;50.00
35497;DHT22;21609;49.298;6.844;2022-08-03T02:19:53;23.90;50.10
35497;DHT22;21609;49.298;6.844;2022-08-03T02:22:22;23.90;50.10
35497;DHT22;21609;49.298;6.844;2022-08-03T02:24:49;23.90;50.10
35497;DHT22;21609;49.298;6.844;2022-08-03T02:27:21;23.90;50.20
35497;DHT22;21609;49.298;6.844;2022-08-03T02:29:50;23.90;50.20
35497;DHT22;21609;49.298;6.844;2022-08-03T02:32:20;23.90;50.20
35497;DHT22;21609;49.298;6.844;2022-08-03T02:34:50;23.80;50.20
35497;DHT22;21609;49.298;6.844;2022-08-03T02:37:19;23.80;50.30
35497;DHT22;21609;49.298;6.844;2022-08-03T02:39:47;23.80;50.20
35497;DHT22;21609;49.298;6.844;2022-08-03T02:42:14;23.80;50.30
35497;DHT22;21609;49.298;6.844;2022-08-03T02:44:41;23.80;50.30
35497;DHT22;21609;49.298;6.844;2022-08-03T02:47:12;23.70;50.30
35497;DHT22;21609;49.298;6.844;2022-08-03T02:49:40;23.70;50.40
35497;DHT22;21609;49.298;6.844;2022-08-03T02:52:09;23.70;50.40
35497;DHT22;21609;49.298;6.844;2022-08-03T02:54:37;23.70;50.30
35497;DHT22;21609;49.298;6.844;2022-08-03T02:57:06;23.70;50.30
35497;DHT22;21609;49.298;6.844;2022-08-03T02:59:33;23.70;50.40
35497;DHT22;21609;49.298;6.844;2022-08-03T03:02:01;23.60;50.30
35497;DHT22;21609;49.298;6.844;2022-08-03T03:04:27;23.60;50.50
35497;DHT22;21609;49.298;6.844;2022-08-03T03:06:54;23.60;50.50
35497;DHT22;21609;49.298;6.844;2022-08-03T03:09:21;23.60;50.50
35497;DHT22;21609;49.298;6.844;2022-08-03T03:11:48;23.60;50.40
35497;DHT22;21609;49.298;6.844;2022-08-03T03:14:15;23.50;50.50
35497;DHT22;21609;49.298;6.844;2022-08-03T03:16:43;23.50;50.50
35497;DHT22;21609;49.298;6.844;2022-08-03T03:19:11;23.50;50.50
35497;DHT22;21609;49.298;6.844;2022-08-03T03:21:37;23.50;50.40
35497;DHT22;21609;49.298;6.844;2022-08-03T03:24:05;23.50;50.40
35497;DHT22;21609;49.298;6.844;2022-08-03T03:26:31;23.60;50.40
35497;DHT22;21609;49.298;6.844;2022-08-03T03:28:57;23.50;50.50
35497;DHT22;21609;49.298;6.844;2022-08-03T03:31:23;23.50;50.50
35497;DHT22;21609;49.298;6.844;2022-08-03T03:33:49;23.40;50.60
35497;DHT22;21609;49.298;6.844;2022-08-03T03:36:14;23.40;50.60
35497;DHT22;21609;49.298;6.844;2022-08-03T03:38:40;23.40;50.50
35497;DHT22;21609;49.298;6.844;2022-08-03T03:41:06;23.40;50.60
35497;DHT22;21609;49.298;6.844;2022-08-03T03:43:32;23.40;50.60
35497;DHT22;21609;49.298;6.844;2022-08-03T03:45:58;23.30;50.50
35497;DHT22;21609;49.298;6.844;2022-08-03T03:48:25;23.40;50.50
35497;DHT22;21609;49.298;6.844;2022-08-03T03:50:50;23.40;50.50
35497;DHT22;21609;49.298;6.844;2022-08-03T03:53:16;23.40;50.50
35497;DHT22;21609;49.298;6.844;2022-08-03T03:55:42;23.30;50.60
35497;DHT22;21609;49.298;6.844;2022-08-03T03:58:08;23.30;50.70
35497;DHT22;21609;49.298;6.844;2022-08-03T04:00:34;23.40;50.70
35497;DHT22;21609;49.298;6.844;2022-08-03T04:02:59;23.40;50.70
35497;DHT22;21609;49.298;6.844;2022-08-03T04:05:25;23.40;50.80
35497;DHT22;21609;49.298;6.844;2022-08-03T04:08:16;23.40;50.70
35497;DHT22;21609;49.298;6.844;2022-08-03T04:11:27;23.40;50.80
35497;DHT22;21609;49.298;6.844;2022-08-03T04:16:27;23.30;50.70
35497;DHT22;21609;49.298;6.844;2022-08-03T04:18:59;23.30;51.00
35497;DHT22;21609;49.298;6.844;2022-08-03T04:21:27;23.30;50.80
35497;DHT22;21609;49.298;6.844;2022-08-03T04:24:00;23.30;50.90
35497;DHT22;21609;49.298;6.844;2022-08-03T04:26:31;23.20;51.00
35497;DHT22;21609;49.298;6.844;2022-08-03T04:28:58;23.30;51.00
35497;DHT22;21609;49.298;6.844;2022-08-03T04:31:25;23.20;51.00
35497;DHT22;21609;49.298;6.844;2022-08-03T04:33:52;23.20;51.10
35497;DHT22;21609;49.298;6.844;2022-08-03T04:36:24;23.20;51.70
35497;DHT22;21609;49.298;6.844;2022-08-03T04:39:07;22.90;51.10
35497;DHT22;21609;49.298;6.844;2022-08-03T04:41:35;22.70;51.90
35497;DHT22;21609;49.298;6.844;2022-08-03T04:44:01;22.60;52.10
35497;DHT22;21609;49.298;6.844;2022-08-03T04:46:32;22.50;52.60
35497;DHT22;21609;49.298;6.844;2022-08-03T04:48:59;22.50;52.60
35497;DHT22;21609;49.298;6.844;2022-08-03T04:51:25;22.30;52.70
35497;DHT22;21609;49.298;6.844;2022-08-03T04:53:51;22.40;52.70
35497;DHT22;21609;49.298;6.844;2022-08-03T04:56:17;22.40;52.80
35497;DHT22;21609;49.298;6.844;2022-08-03T04:58:43;22.20;52.90
35497;DHT22;21609;49.298;6.844;2022-08-03T05:01:09;22.30;53.00
35497;DHT22;21609;49.298;6.844;2022-08-03T05:03:34;22.40;53.10
35497;DHT22;21609;49.298;6.844;2022-08-03T05:06:00;22.40;53.20
35497;DHT22;21609;49.298;6.844;2022-08-03T05:08:25;22.50;53.20
35497;DHT22;21609;49.298;6.844;2022-08-03T05:10:51;22.50;53.40
35497;DHT22;21609;49.298;6.844;2022-08-03T05:13:17;22.50;53.70
35497;DHT22;21609;49.298;6.844;2022-08-03T05:15:42;22.60;53.90
35497;DHT22;21609;49.298;6.844;2022-08-03T05:18:08;22.60;53.80
35497;DHT22;21609;49.298;6.844;2022-08-03T05:20:33;22.60;53.80
35497;DHT22;21609;49.298;6.844;2022-08-03T05:22:59;22.60;53.90
35497;DHT22;21609;49.298;6.844;2022-08-03T05:25:26;22.80;53.80
35497;DHT22;21609;49.298;6.844;2022-08-03T05:27:52;22.90;53.80
35497;DHT22;21609;49.298;6.844;2022-08-03T05:30:18;22.80;53.70
35497;DHT22;21609;49.298;6.844;2022-08-03T05:32:43;22.90;53.80
35497;DHT22;21609;49.298;6.844;2022-08-03T05:35:09;23.00;53.80
35497;DHT22;21609;49.298;6.844;2022-08-03T05:37:35;23.00;53.80
35497;DHT22;21609;49.298;6.844;2022-08-03T05:40:00;23.00;53.90
35497;DHT22;21609;49.298;6.844;2022-08-03T05:42:26;23.10;53.80
35497;DHT22;21609;49.298;6.844;2022-08-03T05:44:51;23.10;53.80
35497;DHT22;21609;49.298;6.844;2022-08-03T05:47:17;23.20;53.90
35497;DHT22;21609;49.298;6.844;2022-08-03T05:49:43;23.20;54.00
35497;DHT22;21609;49.298;6.844;2022-08-03T05:52:08;23.20;53.90
35497;DHT22;21609;49.298;6.844;2022-08-03T05:54:34;23.20;54.00
35497;DHT22;21609;49.298;6.844;2022-08-03T05:56:59;23.20;54.10
35497;DHT22;21609;49.298;6.844;2022-08-03T05:59:25;23.10;54.60
35497;DHT22;21609;49.298;6.844;2022-08-03T06:01:51;23.20;54.60
35497;DHT22;21609;49.298;6.844;2022-08-03T06:04:16;23.20;54.50
35497;DHT22;21609;49.298;6.844;2022-08-03T06:06:42;23.10;54.80
35497;DHT22;21609;49.298;6.844;2022-08-03T06:09:08;23.20;55.00
35497;DHT22;21609;49.298;6.844;2022-08-03T06:11:35;23.20;55.20
35497;DHT22;21609;49.298;6.844;2022-08-03T06:14:01;23.20;55.30
35497;DHT22;21609;49.298;6.844;2022-08-03T06:16:26;23.30;55.10
35497;DHT22;21609;49.298;6.844;2022-08-03T06:18:52;23.30;55.20
35497;DHT22;21609;49.298;6.844;2022-08-03T06:21:18;23.30;55.30
35497;DHT22;21609;49.298;6.844;2022-08-03T06:23:44;23.30;55.50
35497;DHT22;21609;49.298;6.844;2022-08-03T06:26:10;23.30;55.70
35497;DHT22;21609;49.298;6.844;2022-08-03T06:28:36;23.40;55.60
35497;DHT22;21609;49.298;6.844;2022-08-03T06:31:01;23.40;55.40
35497;DHT22;21609;49.298;6.844;2022-08-03T06:33:28;23.40;55.60
35497;DHT22;21609;49.298;6.844;2022-08-03T06:35:53;23.50;55.20
35497;DHT22;21609;49.298;6.844;2022-08-03T06:38:19;23.50;55.20
35497;DHT22;21609;49.298;6.844;2022-08-03T06:40:44;23.50;55.50
35497;DHT22;21609;49.298;6.844;2022-08-03T06:43:10;23.50;55.30
35497;DHT22;21609;49.298;6.844;2022-08-03T06:45:36;23.50;55.10
35497;DHT22;21609;49.298;6.844;2022-08-03T06:48:08;23.50;55.10
35497;DHT22;21609;49.298;6.844;2022-08-03T06:50:35;23.60;54.90
35497;DHT22;21609;49.298;6.844;2022-08-03T06:53:02;23.60;54.80
35497;DHT22;21609;49.298;6.844;2022-08-03T06:55:28;23.60;54.50
35497;DHT22;21609;49.298;6.844;2022-08-03T06:57:53;23.60;54.40
35497;DHT22;21609;49.298;6.844;2022-08-03T07:00:19;23.60;54.40
35497;DHT22;21609;49.298;6.844;2022-08-03T07:02:45;23.60;54.30
35497;DHT22;21609;49.298;6.844;2022-08-03T07:05:11;23.60;54.40
35497;DHT22;21609;49.298;6.844;2022-08-03T07:07:38;23.60;54.40
35497;DHT22;21609;49.298;6.844;2022-08-03T07:10:05;23.60;54.40
35497;DHT22;21609;49.298;6.844;2022-08-03T07:12:31;23.60;54.30
35497;DHT22;21609;49.298;6.844;2022-08-03T07:14:59;23.60;54.20
35497;DHT22;21609;49.298;6.844;2022-08-03T07:17:25;23.60;54.30
35497;DHT22;21609;49.298;6.844;2022-08-03T07:19:51;23.60;54.30
35497;DHT22;21609;49.298;6.844;2022-08-03T07:22:17;23.60;54.20
35497;DHT22;21609;49.298;6.844;2022-08-03T07:24:43;23.60;54.20
35497;DHT22;21609;49.298;6.844;2022-08-03T07:27:09;23.60;54.20
35497;DHT22;21609;49.298;6.844;2022-08-03T07:29:34;23.60;54.20
35497;DHT22;21609;49.298;6.844;2022-08-03T07:32:01;23.60;54.20
35497;DHT22;21609;49.298;6.844;2022-08-03T07:34:27;23.60;54.80
35497;DHT22;21609;49.298;6.844;2022-08-03T07:36:53;23.60;54.20
35497;DHT22;21609;49.298;6.844;2022-08-03T07:39:18;23.60;54.20
35497;DHT22;21609;49.298;6.844;2022-08-03T07:41:45;23.60;54.20
35497;DHT22;21609;49.298;6.844;2022-08-03T07:44:12;23.70;54.20
35497;DHT22;21609;49.298;6.844;2022-08-03T07:46:37;23.60;54.30
35497;DHT22;21609;49.298;6.844;2022-08-03T07:49:03;23.70;54.20
35497;DHT22;21609;49.298;6.844;2022-08-03T07:51:29;23.70;54.20
35497;DHT22;21609;49.298;6.844;2022-08-03T07:53:54;23.70;54.20
35497;DHT22;21609;49.298;6.844;2022-08-03T07:56:22;23.70;54.10
35497;DHT22;21609;49.298;6.844;2022-08-03T07:58:52;23.70;54.10
35497;DHT22;21609;49.298;6.844;2022-08-03T08:01:17;23.70;54.10
35497;DHT22;21609;49.298;6.844;2022-08-03T08:03:44;23.70;54.30
35497;DHT22;21609;49.298;6.844;2022-08-03T08:06:10;23.70;54.30
35497;DHT22;21609;49.298;6.844;2022-08-03T08:08:37;23.70;54.80
35497;DHT22;21609;49.298;6.844;2022-08-03T08:11:03;23.70;54.20
35497;DHT22;21609;49.298;6.844;2022-08-03T08:13:28;23.70;54.30
35497;DHT22;21609;49.298;6.844;2022-08-03T08:15:54;23.60;54.30
35497;DHT22;21609;49.298;6.844;2022-08-03T08:18:19;23.70;54.30
35497;DHT22;21609;49.298;6.844;2022-08-03T08:20:45;23.70;54.40
35497;DHT22;21609;49.298;6.844;2022-08-03T08:23:11;23.70;54.40
35497;DHT22;21609;49.298;6.844;2022-08-03T08:25:36;23.70;54.40
35497;DHT22;21609;49.298;6.844;2022-08-03T08:28:02;23.70;54.40
35497;DHT22;21609;49.298;6.844;2022-08-03T08:30:29;23.70;54.40
35497;DHT22;21609;49.298;6.844;2022-08-03T08:32:55;23.70;54.40
35497;DHT22;21609;49.298;6.844;2022-08-03T08:35:22;23.70;54.50
35497;DHT22;21609;49.298;6.844;2022-08-03T08:37:47;23.70;54.50
35497;DHT22;21609;49.298;6.844;2022-08-03T08:40:13;23.70;54.50
35497;DHT22;21609;49.298;6.844;2022-08-03T08:42:40;23.60;54.40
35497;DHT22;21609;49.298;6.844;2022-08-03T08:45:06;23.70;54.40
35497;DHT22;21609;49.298;6.844;2022-08-03T08:47:36;23.60;54.40
35497;DHT22;21609;49.298;6.844;2022-08-03T08:50:03;23.70;54.50
35497;DHT22;21609;49.298;6.844;2022-08-03T08:52:30;23.70;54.50
35497;DHT22;21609;49.298;6.844;2022-08-03T08:54:58;23.70;54.50
35497;DHT22;21609;49.298;6.844;2022-08-03T08:57:28;23.70;54.50
35497;DHT22;21609;49.298;6.844;2022-08-03T08:59:57;23.70;54.40
35497;DHT22;21609;49.298;6.844;2022-08-03T09:02:24;23.70;54.50
35497;DHT22;21609;49.298;6.844;2022-08-03T09:04:50;23.70;54.50
35497;DHT22;21609;49.298;6.844;2022-08-03T09:07:16;23.70;54.40
35497;DHT22;21609;49.298;6.844;2022-08-03T09:09:42;23.70;54.50
35497;DHT22;21609;49.298;6.844;2022-08-03T09:12:08;23.70;55.20
35497;DHT22;21609;49.298;6.844;2022-08-03T09:14:33;23.70;54.60
35497;DHT22;21609;49.298;6.844;2022-08-03T09:17:01;23.80;54.50
35497;DHT22;21609;49.298;6.844;2022-08-03T09:19:28;23.70;54.40
35497;DHT22;21609;49.298;6.844;2022-08-03T09:22:13;23.70;54.50
35497;DHT22;21609;49.298;6.844;2022-08-03T09:25:04;23.80;54.40
35497;DHT22;21609;49.298;6.844;2022-08-03T09:27:42;23.80;54.40
35497;DHT22;21609;49.298;6.844;2022-08-03T09:30:17;23.80;54.50
35497;DHT22;21609;49.298;6.844;2022-08-03T09:32:43;23.80;54.40
35497;DHT22;21609;49.298;6.844;2022-08-03T09:35:11;23.80;54.40
35497;DHT22;21609;49.298;6.844;2022-08-03T09:37:38;23.80;54.40
35497;DHT22;21609;49.298;6.844;2022-08-03T09:40:04;23.80;54.40
35497;DHT22;21609;49.298;6.844;2022-08-03T09:42:30;23.80;54.40
35497;DHT22;21609;49.298;6.844;2022-08-03T09:44:55;23.80;54.40
35497;DHT22;21609;49.298;6.844;2022-08-03T09:47:30;23.80;54.40
35497;DHT22;21609;49.298;6.844;2022-08-03T09:50:02;23.80;54.70
35497;DHT22;21609;49.298;6.844;2022-08-03T09:52:33;23.80;54.40
35497;DHT22;21609;49.298;6.844;2022-08-03T09:54:59;23.80;54.40
35497;DHT22;21609;49.298;6.844;2022-08-03T09:57:27;23.80;54.30
35497;DHT22;21609;49.298;6.844;2022-08-03T09:59:53;23.80;54.30
35497;DHT22;21609;49.298;6.844;2022-08-03T10:02:29;23.80;54.30
35497;DHT22;21609;49.298;6.844;2022-08-03T10:04:54;23.90;54.50
35497;DHT22;21609;49.298;6.844;2022-08-03T10:07:23;23.80;54.20
35497;DHT22;21609;49.298;6.844;2022-08-03T10:12:18;23.90;54.30
35497;DHT22;21609;49.298;6.844;2022-08-03T10:14:44;23.90;54.40
35497;DHT22;21609;49.298;6.844;2022-08-03T10:17:11;23.90;54.20
35497;DHT22;21609;49.298;6.844;2022-08-03T10:19:36;23.90;54.30
35497;DHT22;21609;49.298;6.844;2022-08-03T10:22:18;23.90;54.40
35497;DHT22;21609;49.298;6.844;2022-08-03T10:24:56;23.90;54.40
35497;DHT22;21609;49.298;6.844;2022-08-03T10:27:23;23.90;54.30
35497;DHT22;21609;49.298;6.844;2022-08-03T10:29:54;23.90;53.90
35497;DHT22;21609;49.298;6.844;2022-08-03T10:32:27;23.90;54.20
35497;DHT22;21609;49.298;6.844;2022-08-03T10:35:02;23.90;54.00
35497;DHT22;21609;49.298;6.844;2022-08-03T10:37:29;23.90;54.10
35497;DHT22;21609;49.298;6.844;2022-08-03T10:39:57;23.90;54.10
35497;DHT22;21609;49.298;6.844;2022-08-03T10:42:25;23.90;54.30
35497;DHT22;21609;49.298;6.844;2022-08-03T10:45:00;23.90;54.00
35497;DHT22;21609;49.298;6.844;2022-08-03T10:47:29;23.90;53.70
35497;DHT22;21609;49.298;6.844;2022-08-03T10:49:55;23.90;53.90
35497;DHT22;21609;49.298;6.844;2022-08-03T10:52:21;23.90;54.00
35497;DHT22;21609;49.298;6.844;2022-08-03T10:54:46;23.90;54.30
35497;DHT22;21609;49.298;6.844;2022-08-03T11:00:14;24.00;54.10
35497;DHT22;21609;49.298;6.844;2022-08-03T11:03:11;24.00;54.20
35497;DHT22;21609;49.298;6.844;2022-08-03T11:05:41;23.90;54.10
35497;DHT22;21609;49.298;6.844;2022-08-03T11:08:22;23.90;54.20
35497;DHT22;21609;49.298;6.844;2022-08-03T11:10:49;24.00;54.10
35497;DHT22;21609;49.298;6.844;2022-08-03T11:13:17;24.00;54.00
35497;DHT22;21609;49.298;6.844;2022-08-03T11:15:45;24.00;54.00
35497;DHT22;21609;49.298;6.844;2022-08-03T11:18:12;24.00;54.00
35497;DHT22;21609;49.298;6.844;2022-08-03T11:20:54;24.10;53.90
35497;DHT22;21609;49.298;6.844;2022-08-03T11:23:43;24.00;53.90
35497;DHT22;21609;49.298;6.844;2022-08-03T11:28:40;24.00;54.10
35497;DHT22;21609;49.298;6.844;2022-08-03T11:34:12;24.00;54.00
35497;DHT22;21609;49.298;6.844;2022-08-03T11:39:43;24.10;54.00
35497;DHT22;21609;49.298;6.844;2022-08-03T11:44:49;24.10;54.30
35497;DHT22;21609;49.298;6.844;2022-08-03T11:47:16;24.10;54.00
35497;DHT22;21609;49.298;6.844;2022-08-03T11:49:46;24.10;54.20
35497;DHT22;21609;49.298;6.844;2022-08-03T11:52:12;24.10;53.90
35497;DHT22;21609;49.298;6.844;2022-08-03T11:54:38;24.10;54.10
35497;DHT22;21609;49.298;6.844;2022-08-03T11:57:05;24.10;54.00
35497;DHT22;21609;49.298;6.844;2022-08-03T11:59:34;24.10;54.10
35497;DHT22;21609;49.298;6.844;2022-08-03T12:02:10;24.10;54.00
35497;DHT22;21609;49.298;6.844;2022-08-03T12:04:52;24.10;54.00
35497;DHT22;21609;49.298;6.844;2022-08-03T12:07:19;24.20;54.10
35497;DHT22;21609;49.298;6.844;2022-08-03T12:10:13;24.10;53.90
35497;DHT22;21609;49.298;6.844;2022-08-03T12:12:40;24.20;54.00
35497;DHT22;21609;49.298;6.844;2022-08-03T12:15:07;24.20;54.00
35497;DHT22;21609;49.298;6.844;2022-08-03T12:17:38;24.10;54.00
35497;DHT22;21609;49.298;6.844;2022-08-03T12:20:05;24.20;53.90
35497;DHT22;21609;49.298;6.844;2022-08-03T12:22:33;24.20;53.90
35497;DHT22;21609;49.298;6.844;2022-08-03T12:24:59;24.20;53.90
35497;DHT22;21609;49.298;6.844;2022-08-03T12:27:25;24.20;53.90
35497;DHT22;21609;49.298;6.844;2022-08-03T12:29:55;24.20;53.90
35497;DHT22;21609;49.298;6.844;2022-08-03T12:32:20;24.20;53.80
35497;DHT22;21609;49.298;6.844;2022-08-03T12:34:47;24.20;53.80
35497;DHT22;21609;49.298;6.844;2022-08-03T12:37:13;24.20;53.90
35497;DHT22;21609;49.298;6.844;2022-08-03T12:39:51;24.20;54.00
35497;DHT22;21609;49.298;6.844;2022-08-03T12:42:17;24.20;54.00
35497;DHT22;21609;49.298;6.844;2022-08-03T12:44:42;24.20;53.90
35497;DHT22;21609;49.298;6.844;2022-08-03T12:47:10;24.30;53.80
35497;DHT22;21609;49.298;6.844;2022-08-03T12:49:52;24.30;53.80
35497;DHT22;21609;49.298;6.844;2022-08-03T12:52:19;24.20;53.70
35497;DHT22;21609;49.298;6.844;2022-08-03T12:54:56;24.20;53.80
35497;DHT22;21609;49.298;6.844;2022-08-03T12:57:22;24.30;53.90
35497;DHT22;21609;49.298;6.844;2022-08-03T12:59:47;24.30;53.90
35497;DHT22;21609;49.298;6.844;2022-08-03T13:02:17;24.30;54.10
35497;DHT22;21609;49.298;6.844;2022-08-03T13:04:43;24.30;54.10
35497;DHT22;21609;49.298;6.844;2022-08-03T13:07:13;24.30;53.90
35497;DHT22;21609;49.298;6.844;2022-08-03T13:09:57;24.30;53.80
35497;DHT22;21609;49.298;6.844;2022-08-03T13:12:25;24.30;53.90
35497;DHT22;21609;49.298;6.844;2022-08-03T13:14:55;24.30;53.90
35497;DHT22;21609;49.298;6.844;2022-08-03T13:17:21;24.30;53.90
35497;DHT22;21609;49.298;6.844;2022-08-03T13:19:47;24.30;53.90
35497;DHT22;21609;49.298;6.844;2022-08-03T13:22:33;24.30;53.90
35497;DHT22;21609;49.298;6.844;2022-08-03T13:24:59;24.40;53.90
35497;DHT22;21609;49.298;6.844;2022-08-03T13:27:26;24.40;53.90
35497;DHT22;21609;49.298;6.844;2022-08-03T13:29:52;24.40;53.90
35497;DHT22;21609;49.298;6.844;2022-08-03T13:32:18;24.40;53.90
35497;DHT22;21609;49.298;6.844;2022-08-03T13:34:44;24.40;53.80
35497;DHT22;21609;49.298;6.844;2022-08-03T13:37:11;24.40;54.40
35497;DHT22;21609;49.298;6.844;2022-08-03T13:39:37;24.40;53.80
35497;DHT22;21609;49.298;6.844;2022-08-03T13:42:03;24.40;53.90
35497;DHT22;21609;49.298;6.844;2022-08-03T13:44:30;24.40;53.90
35497;DHT22;21609;49.298;6.844;2022-08-03T13:46:55;24.40;53.90
35497;DHT22;21609;49.298;6.844;2022-08-03T13:49:21;24.40;53.80
35497;DHT22;21609;49.298;6.844;2022-08-03T13:51:46;24.40;53.80
35497;DHT22;21609;49.298;6.844;2022-08-03T13:54:12;24.40;53.90
35497;DHT22;21609;49.298;6.844;2022-08-03T13:56:37;24.40;53.90
35497;DHT22;21609;49.298;6.844;2022-08-03T13:59:03;24.40;53.80
35497;DHT22;21609;49.298;6.844;2022-08-03T14:01:28;24.40;53.80
35497;DHT22;21609;49.298;6.844;2022-08-03T14:03:54;24.50;53.90
35497;DHT22;21609;49.298;6.844;2022-08-03T14:06:21;24.50;53.90
35497;DHT22;21609;49.298;6.844;2022-08-03T14:08:47;24.50;53.90
35497;DHT22;21609;49.298;6.844;2022-08-03T14:11:14;24.40;53.90
35497;DHT22;21609;49.298;6.844;2022-08-03T14:13:40;24.50;53.80
35497;DHT22;21609;49.298;6.844;2022-08-03T14:16:05;24.50;53.80
35497;DHT22;21609;49.298;6.844;2022-08-03T14:18:31;24.50;53.80
35497;DHT22;21609;49.298;6.844;2022-08-03T14:20:57;24.50;53.80
35497;DHT22;21609;49.298;6.844;2022-08-03T14:23:23;24.50;53.90
35497;DHT22;21609;49.298;6.844;2022-08-03T14:25:49;24.50;54.40
35497;DHT22;21609;49.298;6.844;2022-08-03T14:28:14;24.50;54.00
35497;DHT22;21609;49.298;6.844;2022-08-03T14:30:41;24.50;53.90
35497;DHT22;21609;49.298;6.844;2022-08-03T14:33:06;24.50;53.90
35497;DHT22;21609;49.298;6.844;2022-08-03T14:35:32;24.50;53.90
35497;DHT22;21609;49.298;6.844;2022-08-03T14:37:57;24.50;54.00
35497;DHT22;21609;49.298;6.844;2022-08-03T14:40:23;24.60;54.10
35497;DHT22;21609;49.298;6.844;2022-08-03T14:42:49;24.60;54.10
35497;DHT22;21609;49.298;6.844;2022-08-03T14:45:14;24.60;54.10
35497;DHT22;21609;49.298;6.844;2022-08-03T14:47:40;24.60;54.00
35497;DHT22;21609;49.298;6.844;2022-08-03T14:50:06;24.60;54.00
35497;DHT22;21609;49.298;6.844;2022-08-03T14:52:32;24.60;54.00
35497;DHT22;21609;49.298;6.844;2022-08-03T14:54:59;24.60;53.90
35497;DHT22;21609;49.298;6.844;2022-08-03T14:57:25;24.60;54.00
35497;DHT22;21609;49.298;6.844;2022-08-03T14:59:51;24.60;54.00
35497;DHT22;21609;49.298;6.844;2022-08-03T15:02:16;24.60;54.00
35497;DHT22;21609;49.298;6.844;2022-08-03T15:04:42;24.60;54.00
35497;DHT22;21609;49.298;6.844;2022-08-03T15:07:08;24.60;54.00
35497;DHT22;21609;49.298;6.844;2022-08-03T15:09:33;24.60;53.90
35497;DHT22;21609;49.298;6.844;2022-08-03T15:11:59;24.60;54.00
35497;DHT22;21609;49.298;6.844;2022-08-03T15:14:25;24.60;54.00
35497;DHT22;21609;49.298;6.844;2022-08-03T15:16:50;24.60;54.00
35497;DHT22;21609;49.298;6.844;2022-08-03T15:19:16;24.70;53.80
35497;DHT22;21609;49.298;6.844;2022-08-03T15:21:42;24.70;53.80
35497;DHT22;21609;49.298;6.844;2022-08-03T15:24:07;24.70;53.80
35497;DHT22;21609;49.298;6.844;2022-08-03T15:26:33;24.70;53.80
35497;DHT22;21609;49.298;6.844;2022-08-03T15:28:58;24.70;53.80
35497;DHT22;21609;49.298;6.844;2022-08-03T15:31:24;24.70;53.80
35497;DHT22;21609;49.298;6.844;2022-08-03T15:33:50;24.70;53.80
35497;DHT22;21609;49.298;6.844;2022-08-03T15:36:17;24.70;53.70
35497;DHT22;21609;49.298;6.844;2022-08-03T15:38:43;24.70;53.70
35497;DHT22;21609;49.298;6.844;2022-08-03T15:41:09;24.70;53.70
35497;DHT22;21609;49.298;6.844;2022-08-03T15:43:34;24.70;53.70
35497;DHT22;21609;49.298;6.844;2022-08-03T15:46:00;24.70;53.70
35497;DHT22;21609;49.298;6.844;2022-08-03T15:48:26;24.70;53.70
35497;DHT22;21609;49.298;6.844;2022-08-03T15:50:51;24.70;53.70
35497;DHT22;21609;49.298;6.844;2022-08-03T15:53:18;24.80;53.80
35497;DHT22;21609;49.298;6.844;2022-08-03T15:55:44;24.80;53.60
35497;DHT22;21609;49.298;6.844;2022-08-03T15:58:10;24.80;53.50
35497;DHT22;21609;49.298;6.844;2022-08-03T16:00:35;24.80;53.60
35497;DHT22;21609;49.298;6.844;2022-08-03T16:03:01;24.80;53.50
35497;DHT22;21609;49.298;6.844;2022-08-03T16:05:27;24.80;54.20
35497;DHT22;21609;49.298;6.844;2022-08-03T16:07:52;24.80;53.50